map of IWJ home
IWJ - Airport
Location
City:  Iwami, Shimane, Japan
Near (Alt.):Masuda
Name:Iwami Airport
ICAO:RJOW
IATA:IWJ

Details
Type:Airport (Aerodrome, Airfield)
Latitude:34°40'35"N (34.676389)
Longitude:131°47'25"E (131.790278)
Datum:WGS 1984
Elevation:184 ft (56 m)
Variation:7.87°W (WMM2015 magnetic declination)
-0.07° annual change
Runways:1
Longest:6562 × 148 ft (2000 × 45 m), paved

Time
Time Zone:UTC+9
Local Time:

Weather
METAR:RJOW 220400Z 30007KT 260V320 9999 FEW040 10/M01 Q1017

Related Locations
Nearby:
Farthest:SJEN: 12149 mi / 19551 km
Santa Vitória do Palmar [Pista Plá e Silva], RS, BR

Find:

   beyond  
but within

Other Information
Maps:
NOTAMs:
Links:
Sources:

  
  • flag of Japan
  • flag of Shimane
  

Sectional Chart

Flight Planning
at skyvector.com

Satellite Image

Google Maps Satellite view

 

Copyright © 2004-2019 Karl L. Swartz. All rights reserved.
The Great Circle Mapper name and logo are trademarks of the Great Circle Mapper.
All other trademarks mentioned herein belong to their respective owners.
Please see credits for attibutions and further copyright information.

  Follow gcmap on Facebook Follow gcmap on Twitter Follow gcmap on Google+ GCmap on LinkedIn

hCard Microformat

Geo Microformat